sensor_id;sensor_type;location;lat;lon;timestamp;temperature;humidity
53653;DHT22;39553;52.954;5.932;2022-12-07T00:01:31;5.30;99.90
53653;DHT22;39553;52.954;5.932;2022-12-07T00:03:59;5.10;99.90
53653;DHT22;39553;52.954;5.932;2022-12-07T00:06:33;3.70;99.90
53653;DHT22;39553;52.954;5.932;2022-12-07T00:08:59;4.60;99.90
53653;DHT22;39553;52.954;5.932;2022-12-07T00:11:24;3.50;99.90
53653;DHT22;39553;52.954;5.932;2022-12-07T00:13:56;3.50;99.90
53653;DHT22;39553;52.954;5.932;2022-12-07T00:16:24;3.50;99.90
53653;DHT22;39553;52.954;5.932;2022-12-07T00:18:50;3.50;99.90
53653;DHT22;39553;52.954;5.932;2022-12-07T00:21:20;3.50;99.90
53653;DHT22;39553;52.954;5.932;2022-12-07T00:23:47;3.50;99.90
53653;DHT22;39553;52.954;5.932;2022-12-07T00:26:19;3.50;99.90
53653;DHT22;39553;52.954;5.932;2022-12-07T00:28:47;3.50;99.90
53653;DHT22;39553;52.954;5.932;2022-12-07T00:31:14;3.50;99.90
53653;DHT22;39553;52.954;5.932;2022-12-07T00:33:40;3.50;99.90
53653;DHT22;39553;52.954;5.932;2022-12-07T00:36:09;3.50;99.90
53653;DHT22;39553;52.954;5.932;2022-12-07T00:38:36;3.50;99.90
53653;DHT22;39553;52.954;5.932;2022-12-07T00:41:05;3.40;99.90
53653;DHT22;39553;52.954;5.932;2022-12-07T00:43:31;3.40;99.90
53653;DHT22;39553;52.954;5.932;2022-12-07T00:45:57;3.40;99.90
53653;DHT22;39553;52.954;5.932;2022-12-07T00:48:23;5.00;99.90
53653;DHT22;39553;52.954;5.932;2022-12-07T00:50:49;3.90;99.90
53653;DHT22;39553;52.954;5.932;2022-12-07T00:53:15;4.80;99.90
53653;DHT22;39553;52.954;5.932;2022-12-07T00:55:41;3.10;99.90
53653;DHT22;39553;52.954;5.932;2022-12-07T00:58:07;5.00;99.90
53653;DHT22;39553;52.954;5.932;2022-12-07T01:00:35;3.20;99.90
53653;DHT22;39553;52.954;5.932;2022-12-07T01:03:02;3.10;99.90
53653;DHT22;39553;52.954;5.932;2022-12-07T01:05:27;4.80;99.90
53653;DHT22;39553;52.954;5.932;2022-12-07T01:07:53;3.90;99.90
53653;DHT22;39553;52.954;5.932;2022-12-07T01:10:19;3.10;99.90
53653;DHT22;39553;52.954;5.932;2022-12-07T01:12:44;3.10;99.90
53653;DHT22;39553;52.954;5.932;2022-12-07T01:15:11;3.70;99.90
53653;DHT22;39553;52.954;5.932;2022-12-07T01:17:36;3.10;99.90
53653;DHT22;39553;52.954;5.932;2022-12-07T01:20:03;4.60;99.90
53653;DHT22;39553;52.954;5.932;2022-12-07T01:22:29;3.20;99.90
53653;DHT22;39553;52.954;5.932;2022-12-07T01:24:55;3.60;99.90
53653;DHT22;39553;52.954;5.932;2022-12-07T01:27:20;3.10;99.90
53653;DHT22;39553;52.954;5.932;2022-12-07T01:29:46;3.10;99.90
53653;DHT22;39553;52.954;5.932;2022-12-07T01:32:12;4.40;99.90
53653;DHT22;39553;52.954;5.932;2022-12-07T01:34:38;3.20;99.90
53653;DHT22;39553;52.954;5.932;2022-12-07T01:37:04;4.80;99.90
53653;DHT22;39553;52.954;5.932;2022-12-07T01:39:30;4.60;99.90
53653;DHT22;39553;52.954;5.932;2022-12-07T01:41:55;4.40;99.90
53653;DHT22;39553;52.954;5.932;2022-12-07T01:44:28;4.90;99.90
53653;DHT22;39553;52.954;5.932;2022-12-07T01:47:02;3.10;99.90
53653;DHT22;39553;52.954;5.932;2022-12-07T01:49:44;3.10;99.90
53653;DHT22;39553;52.954;5.932;2022-12-07T01:52:25;3.20;99.90
53653;DHT22;39553;52.954;5.932;2022-12-07T01:54:59;3.20;99.90
53653;DHT22;39553;52.954;5.932;2022-12-07T01:57:26;3.20;99.90
53653;DHT22;39553;52.954;5.932;2022-12-07T01:59:52;4.00;99.90
53653;DHT22;39553;52.954;5.932;2022-12-07T02:02:32;3.20;99.90
53653;DHT22;39553;52.954;5.932;2022-12-07T02:05:00;3.10;99.90
53653;DHT22;39553;52.954;5.932;2022-12-07T02:07:27;3.10;99.90
53653;DHT22;39553;52.954;5.932;2022-12-07T02:09:54;3.20;99.90
53653;DHT22;39553;52.954;5.932;2022-12-07T02:12:20;3.20;99.90
53653;DHT22;39553;52.954;5.932;2022-12-07T02:14:48;3.20;99.90
53653;DHT22;39553;52.954;5.932;2022-12-07T02:17:28;3.30;99.90
53653;DHT22;39553;52.954;5.932;2022-12-07T02:20:18;3.30;99.90
53653;DHT22;39553;52.954;5.932;2022-12-07T02:23:12;3.30;99.90
53653;DHT22;39553;52.954;5.932;2022-12-07T02:29:18;3.40;99.90
53653;DHT22;39553;52.954;5.932;2022-12-07T02:31:24;3.50;99.90
53653;DHT22;39553;52.954;5.932;2022-12-07T02:34:04;3.60;99.90
53653;DHT22;39553;52.954;5.932;2022-12-07T02:36:36;3.70;99.90
53653;DHT22;39553;52.954;5.932;2022-12-07T02:39:32;4.10;99.90
53653;DHT22;39553;52.954;5.932;2022-12-07T02:42:07;3.80;99.90
53653;DHT22;39553;52.954;5.932;2022-12-07T02:44:35;3.90;99.90
53653;DHT22;39553;52.954;5.932;2022-12-07T02:47:05;4.90;99.90
53653;DHT22;39553;52.954;5.932;2022-12-07T02:49:32;4.20;99.90
53653;DHT22;39553;52.954;5.932;2022-12-07T02:51:58;5.30;99.90
53653;DHT22;39553;52.954;5.932;2022-12-07T02:54:24;3.80;99.90
53653;DHT22;39553;52.954;5.932;2022-12-07T02:56:55;3.80;99.90
53653;DHT22;39553;52.954;5.932;2022-12-07T03:10:58;4.00;99.90
53653;DHT22;39553;52.954;5.932;2022-12-07T03:16:20;4.10;99.90
53653;DHT22;39553;52.954;5.932;2022-12-07T03:21:23;4.00;99.90
53653;DHT22;39553;52.954;5.932;2022-12-07T03:23:55;4.00;99.90
53653;DHT22;39553;52.954;5.932;2022-12-07T03:26:27;3.90;99.90
53653;DHT22;39553;52.954;5.932;2022-12-07T03:28:59;5.60;99.90
53653;DHT22;39553;52.954;5.932;2022-12-07T03:31:31;4.40;99.90
53653;DHT22;39553;52.954;5.932;2022-12-07T03:34:02;5.50;99.90
53653;DHT22;39553;52.954;5.932;2022-12-07T03:39:34;5.40;99.90
53653;DHT22;39553;52.954;5.932;2022-12-07T03:42:04;5.00;99.90
53653;DHT22;39553;52.954;5.932;2022-12-07T03:44:31;5.10;99.90
53653;DHT22;39553;52.954;5.932;2022-12-07T03:53:30;3.50;99.90
53653;DHT22;39553;52.954;5.932;2022-12-07T03:56:00;3.50;99.90
53653;DHT22;39553;52.954;5.932;2022-12-07T03:58:28;3.50;99.90
53653;DHT22;39553;52.954;5.932;2022-12-07T04:00:55;3.50;99.90
53653;DHT22;39553;52.954;5.932;2022-12-07T04:03:21;5.20;99.90
53653;DHT22;39553;52.954;5.932;2022-12-07T04:05:47;3.60;99.90
53653;DHT22;39553;52.954;5.932;2022-12-07T04:08:12;3.60;99.90
53653;DHT22;39553;52.954;5.932;2022-12-07T04:10:38;3.70;99.90
53653;DHT22;39553;52.954;5.932;2022-12-07T04:13:04;4.10;99.90
53653;DHT22;39553;52.954;5.932;2022-12-07T04:15:30;4.30;99.90
53653;DHT22;39553;52.954;5.932;2022-12-07T04:17:56;3.70;99.90
53653;DHT22;39553;52.954;5.932;2022-12-07T04:20:21;3.50;99.90
53653;DHT22;39553;52.954;5.932;2022-12-07T04:22:47;3.50;99.90
53653;DHT22;39553;52.954;5.932;2022-12-07T04:25:13;3.50;99.90
53653;DHT22;39553;52.954;5.932;2022-12-07T04:27:39;3.40;99.90
53653;DHT22;39553;52.954;5.932;2022-12-07T04:30:05;5.20;99.90
53653;DHT22;39553;52.954;5.932;2022-12-07T04:32:31;3.40;99.90
53653;DHT22;39553;52.954;5.932;2022-12-07T04:34:56;3.50;99.90
53653;DHT22;39553;52.954;5.932;2022-12-07T04:37:23;3.20;99.90
53653;DHT22;39553;52.954;5.932;2022-12-07T04:39:49;3.30;99.90
53653;DHT22;39553;52.954;5.932;2022-12-07T04:42:14;3.30;99.90
53653;DHT22;39553;52.954;5.932;2022-12-07T04:44:40;4.80;99.90
53653;DHT22;39553;52.954;5.932;2022-12-07T04:47:06;3.20;99.90
53653;DHT22;39553;52.954;5.932;2022-12-07T04:49:32;4.90;99.90
53653;DHT22;39553;52.954;5.932;2022-12-07T04:51:58;4.30;99.90
53653;DHT22;39553;52.954;5.932;2022-12-07T04:54:23;4.10;99.90
53653;DHT22;39553;52.954;5.932;2022-12-07T04:56:49;4.20;99.90
53653;DHT22;39553;52.954;5.932;2022-12-07T04:59:16;3.10;99.90
53653;DHT22;39553;52.954;5.932;2022-12-07T05:01:42;2.90;99.90
53653;DHT22;39553;52.954;5.932;2022-12-07T05:04:08;2.90;99.90
53653;DHT22;39553;52.954;5.932;2022-12-07T05:06:34;2.70;99.90
53653;DHT22;39553;52.954;5.932;2022-12-07T05:09:00;2.70;99.90
53653;DHT22;39553;52.954;5.932;2022-12-07T05:11:26;2.70;99.90
53653;DHT22;39553;52.954;5.932;2022-12-07T05:16:33;2.80;99.90
53653;DHT22;39553;52.954;5.932;2022-12-07T05:18:59;3.60;99.90
53653;DHT22;39553;52.954;5.932;2022-12-07T05:21:25;2.90;99.90
53653;DHT22;39553;52.954;5.932;2022-12-07T05:23:51;2.90;99.90
53653;DHT22;39553;52.954;5.932;2022-12-07T05:26:17;3.00;99.90
53653;DHT22;39553;52.954;5.932;2022-12-07T05:28:43;3.20;99.90
53653;DHT22;39553;52.954;5.932;2022-12-07T05:31:08;3.20;99.90
53653;DHT22;39553;52.954;5.932;2022-12-07T05:33:34;3.30;99.90
53653;DHT22;39553;52.954;5.932;2022-12-07T05:36:00;3.50;99.90
53653;DHT22;39553;52.954;5.932;2022-12-07T05:38:31;3.60;99.90
53653;DHT22;39553;52.954;5.932;2022-12-07T05:41:05;3.50;99.90
53653;DHT22;39553;52.954;5.932;2022-12-07T05:43:31;2.80;99.90
53653;DHT22;39553;52.954;5.932;2022-12-07T05:45:58;3.50;99.90
53653;DHT22;39553;52.954;5.932;2022-12-07T05:48:24;4.00;99.90
53653;DHT22;39553;52.954;5.932;2022-12-07T05:50:50;3.60;99.90
53653;DHT22;39553;52.954;5.932;2022-12-07T05:53:17;3.70;99.90
53653;DHT22;39553;52.954;5.932;2022-12-07T05:55:43;3.60;99.90
53653;DHT22;39553;52.954;5.932;2022-12-07T05:58:09;3.50;99.90
53653;DHT22;39553;52.954;5.932;2022-12-07T06:00:56;3.50;99.90
53653;DHT22;39553;52.954;5.932;2022-12-07T06:03:22;3.40;99.90
53653;DHT22;39553;52.954;5.932;2022-12-07T06:05:48;3.40;99.90
53653;DHT22;39553;52.954;5.932;2022-12-07T06:08:14;3.40;99.90
53653;DHT22;39553;52.954;5.932;2022-12-07T06:10:41;3.30;99.90
53653;DHT22;39553;52.954;5.932;2022-12-07T06:13:08;3.30;99.90
53653;DHT22;39553;52.954;5.932;2022-12-07T06:15:37;3.30;99.90
53653;DHT22;39553;52.954;5.932;2022-12-07T06:18:03;4.90;99.90
53653;DHT22;39553;52.954;5.932;2022-12-07T06:20:29;4.30;99.90
53653;DHT22;39553;52.954;5.932;2022-12-07T06:22:54;3.20;99.90
53653;DHT22;39553;52.954;5.932;2022-12-07T06:25:20;3.10;99.90
53653;DHT22;39553;52.954;5.932;2022-12-07T06:27:46;3.00;99.90
53653;DHT22;39553;52.954;5.932;2022-12-07T06:30:12;4.50;99.90
53653;DHT22;39553;52.954;5.932;2022-12-07T06:32:37;3.00;99.90
53653;DHT22;39553;52.954;5.932;2022-12-07T06:35:04;2.90;99.90
53653;DHT22;39553;52.954;5.932;2022-12-07T06:37:30;2.90;99.90
53653;DHT22;39553;52.954;5.932;2022-12-07T06:39:55;2.80;99.90
53653;DHT22;39553;52.954;5.932;2022-12-07T06:42:21;4.30;99.90
53653;DHT22;39553;52.954;5.932;2022-12-07T06:44:47;4.70;99.90
53653;DHT22;39553;52.954;5.932;2022-12-07T06:47:13;2.80;99.90
53653;DHT22;39553;52.954;5.932;2022-12-07T06:49:39;4.40;99.90
53653;DHT22;39553;52.954;5.932;2022-12-07T06:52:04;2.60;99.90
53653;DHT22;39553;52.954;5.932;2022-12-07T06:54:31;2.60;99.90
53653;DHT22;39553;52.954;5.932;2022-12-07T06:56:58;4.20;99.90
53653;DHT22;39553;52.954;5.932;2022-12-07T06:59:23;2.50;99.90
53653;DHT22;39553;52.954;5.932;2022-12-07T07:01:49;2.40;99.90
53653;DHT22;39553;52.954;5.932;2022-12-07T07:04:15;4.00;99.90
53653;DHT22;39553;52.954;5.932;2022-12-07T07:06:41;2.40;99.90
53653;DHT22;39553;52.954;5.932;2022-12-07T07:09:07;2.60;99.90
53653;DHT22;39553;52.954;5.932;2022-12-07T07:11:34;2.30;99.90
53653;DHT22;39553;52.954;5.932;2022-12-07T07:14:00;3.40;99.90
53653;DHT22;39553;52.954;5.932;2022-12-07T07:16:29;3.70;99.90
53653;DHT22;39553;52.954;5.932;2022-12-07T07:18:55;2.40;99.90
53653;DHT22;39553;52.954;5.932;2022-12-07T07:21:21;2.20;99.90
53653;DHT22;39553;52.954;5.932;2022-12-07T07:23:47;2.20;99.90
53653;DHT22;39553;52.954;5.932;2022-12-07T07:26:12;2.10;99.90
53653;DHT22;39553;52.954;5.932;2022-12-07T07:28:38;2.10;99.90
53653;DHT22;39553;52.954;5.932;2022-12-07T07:31:04;2.90;99.90
53653;DHT22;39553;52.954;5.932;2022-12-07T07:33:30;1.90;99.90
53653;DHT22;39553;52.954;5.932;2022-12-07T07:35:55;1.90;99.90
53653;DHT22;39553;52.954;5.932;2022-12-07T07:38:21;3.10;99.90
53653;DHT22;39553;52.954;5.932;2022-12-07T07:40:47;2.00;99.90
53653;DHT22;39553;52.954;5.932;2022-12-07T07:43:13;2.00;99.90
53653;DHT22;39553;52.954;5.932;2022-12-07T07:45:39;2.10;99.90
53653;DHT22;39553;52.954;5.932;2022-12-07T07:48:06;2.10;99.90
53653;DHT22;39553;52.954;5.932;2022-12-07T07:50:31;2.20;99.90
53653;DHT22;39553;52.954;5.932;2022-12-07T07:52:57;3.80;99.90
53653;DHT22;39553;52.954;5.932;2022-12-07T07:55:23;2.50;99.90
53653;DHT22;39553;52.954;5.932;2022-12-07T07:57:49;2.90;99.90
53653;DHT22;39553;52.954;5.932;2022-12-07T08:00:15;3.00;99.90
53653;DHT22;39553;52.954;5.932;2022-12-07T08:02:42;2.20;99.90
53653;DHT22;39553;52.954;5.932;2022-12-07T08:05:12;2.60;99.90
53653;DHT22;39553;52.954;5.932;2022-12-07T08:07:37;2.20;99.90
53653;DHT22;39553;52.954;5.932;2022-12-07T08:10:04;3.40;99.90
53653;DHT22;39553;52.954;5.932;2022-12-07T08:12:30;2.20;99.90
53653;DHT22;39553;52.954;5.932;2022-12-07T08:14:56;2.30;99.90
53653;DHT22;39553;52.954;5.932;2022-12-07T08:17:22;3.40;99.90
53653;DHT22;39553;52.954;5.932;2022-12-07T08:19:47;2.10;99.90
53653;DHT22;39553;52.954;5.932;2022-12-07T08:22:13;2.20;99.90
53653;DHT22;39553;52.954;5.932;2022-12-07T08:24:39;3.40;99.90
53653;DHT22;39553;52.954;5.932;2022-12-07T08:27:04;2.10;99.90
53653;DHT22;39553;52.954;5.932;2022-12-07T08:29:30;2.20;99.90
53653;DHT22;39553;52.954;5.932;2022-12-07T08:31:56;2.10;99.90
53653;DHT22;39553;52.954;5.932;2022-12-07T08:34:22;2.10;99.90
53653;DHT22;39553;52.954;5.932;2022-12-07T08:36:47;3.50;99.90
53653;DHT22;39553;52.954;5.932;2022-12-07T08:39:13;2.20;99.90
53653;DHT22;39553;52.954;5.932;2022-12-07T08:41:39;2.30;99.90
53653;DHT22;39553;52.954;5.932;2022-12-07T08:44:04;2.50;99.90
53653;DHT22;39553;52.954;5.932;2022-12-07T08:46:35;2.60;99.90
53653;DHT22;39553;52.954;5.932;2022-12-07T08:49:08;4.00;99.90
53653;DHT22;39553;52.954;5.932;2022-12-07T08:51:36;2.90;99.90
53653;DHT22;39553;52.954;5.932;2022-12-07T08:54:04;3.10;99.90
53653;DHT22;39553;52.954;5.932;2022-12-07T08:56:31;3.40;99.90
53653;DHT22;39553;52.954;5.932;2022-12-07T08:58:58;4.40;99.90
53653;DHT22;39553;52.954;5.932;2022-12-07T09:01:24;5.70;99.90
53653;DHT22;39553;52.954;5.932;2022-12-07T09:03:49;4.40;99.90
53653;DHT22;39553;52.954;5.932;2022-12-07T09:06:15;5.00;99.90
53653;DHT22;39553;52.954;5.932;2022-12-07T09:08:45;4.10;99.90
53653;DHT22;39553;52.954;5.932;2022-12-07T09:11:11;4.00;99.90
53653;DHT22;39553;52.954;5.932;2022-12-07T09:13:37;4.60;99.90
53653;DHT22;39553;52.954;5.932;2022-12-07T09:16:03;4.60;99.90
53653;DHT22;39553;52.954;5.932;2022-12-07T09:18:29;3.80;99.90
53653;DHT22;39553;52.954;5.932;2022-12-07T09:20:56;4.10;99.90
53653;DHT22;39553;52.954;5.932;2022-12-07T09:23:21;5.20;99.90
53653;DHT22;39553;52.954;5.932;2022-12-07T09:25:47;5.20;99.90
53653;DHT22;39553;52.954;5.932;2022-12-07T09:28:13;3.60;99.90
53653;DHT22;39553;52.954;5.932;2022-12-07T09:30:39;3.70;99.90
53653;DHT22;39553;52.954;5.932;2022-12-07T09:33:10;3.60;99.90
53653;DHT22;39553;52.954;5.932;2022-12-07T09:35:35;3.60;99.90
53653;DHT22;39553;52.954;5.932;2022-12-07T09:38:01;3.70;99.90
53653;DHT22;39553;52.954;5.932;2022-12-07T09:40:27;3.70;99.90
53653;DHT22;39553;52.954;5.932;2022-12-07T09:42:54;3.70;99.90
53653;DHT22;39553;52.954;5.932;2022-12-07T09:45:27;5.00;99.90
53653;DHT22;39553;52.954;5.932;2022-12-07T09:47:55;3.70;99.90
53653;DHT22;39553;52.954;5.932;2022-12-07T09:50:26;3.80;99.90
53653;DHT22;39553;52.954;5.932;2022-12-07T09:52:54;5.30;99.90
53653;DHT22;39553;52.954;5.932;2022-12-07T09:55:27;5.80;99.90
53653;DHT22;39553;52.954;5.932;2022-12-07T09:57:53;4.60;99.90
53653;DHT22;39553;52.954;5.932;2022-12-07T10:00:21;5.00;99.90
53653;DHT22;39553;52.954;5.932;2022-12-07T10:05:26;5.00;99.90
53653;DHT22;39553;52.954;5.932;2022-12-07T10:07:53;4.50;99.90
53653;DHT22;39553;52.954;5.932;2022-12-07T10:10:24;4.50;99.90
53653;DHT22;39553;52.954;5.932;2022-12-07T10:20:47;4.50;99.90
53653;DHT22;39553;52.954;5.932;2022-12-07T10:23:17;5.60;99.90
53653;DHT22;39553;52.954;5.932;2022-12-07T10:25:44;4.10;99.90
53653;DHT22;39553;52.954;5.932;2022-12-07T10:28:18;4.00;99.90
53653;DHT22;39553;52.954;5.932;2022-12-07T10:33:35;4.40;99.90
53653;DHT22;39553;52.954;5.932;2022-12-07T10:39:12;4.80;99.90
53653;DHT22;39553;52.954;5.932;2022-12-07T10:42:02;4.80;99.90
53653;DHT22;39553;52.954;5.932;2022-12-07T10:44:30;4.80;99.90
53653;DHT22;39553;52.954;5.932;2022-12-07T11:06:54;5.30;99.90
53653;DHT22;39553;52.954;5.932;2022-12-07T11:14:56;5.20;99.90
53653;DHT22;39553;52.954;5.932;2022-12-07T11:17:47;5.20;99.90
53653;DHT22;39553;52.954;5.932;2022-12-07T11:26:05;5.10;99.90
53653;DHT22;39553;52.954;5.932;2022-12-07T11:37:32;5.00;99.90
53653;DHT22;39553;52.954;5.932;2022-12-07T11:40:13;5.80;99.90
53653;DHT22;39553;52.954;5.932;2022-12-07T11:42:55;5.00;99.90
53653;DHT22;39553;52.954;5.932;2022-12-07T11:45:27;5.10;99.90
53653;DHT22;39553;52.954;5.932;2022-12-07T11:48:01;5.50;99.90
53653;DHT22;39553;52.954;5.932;2022-12-07T11:50:38;5.80;99.90
53653;DHT22;39553;52.954;5.932;2022-12-07T12:06:25;7.40;99.90
53653;DHT22;39553;52.954;5.932;2022-12-07T12:09:03;8.00;99.90
53653;DHT22;39553;52.954;5.932;2022-12-07T12:14:46;6.50;99.90
53653;DHT22;39553;52.954;5.932;2022-12-07T12:20:04;6.90;99.90
53653;DHT22;39553;52.954;5.932;2022-12-07T12:25:23;6.40;99.90
53653;DHT22;39553;52.954;5.932;2022-12-07T12:27:52;6.30;99.90
53653;DHT22;39553;52.954;5.932;2022-12-07T12:30:35;7.50;99.90
53653;DHT22;39553;52.954;5.932;2022-12-07T12:35:37;6.10;99.90
53653;DHT22;39553;52.954;5.932;2022-12-07T12:40:47;5.90;99.90
53653;DHT22;39553;52.954;5.932;2022-12-07T12:43:42;6.00;99.90
53653;DHT22;39553;52.954;5.932;2022-12-07T12:51:48;5.80;99.90
53653;DHT22;39553;52.954;5.932;2022-12-07T13:02:28;5.50;99.90
53653;DHT22;39553;52.954;5.932;2022-12-07T13:04:56;5.50;99.90
53653;DHT22;39553;52.954;5.932;2022-12-07T13:18:34;5.70;99.90
53653;DHT22;39553;52.954;5.932;2022-12-07T13:29:17;5.40;99.90
53653;DHT22;39553;52.954;5.932;2022-12-07T13:31:49;5.40;99.90
53653;DHT22;39553;52.954;5.932;2022-12-07T13:34:40;6.20;99.90
53653;DHT22;39553;52.954;5.932;2022-12-07T13:37:14;5.40;99.90
53653;DHT22;39553;52.954;5.932;2022-12-07T13:39:58;4.60;99.90
53653;DHT22;39553;52.954;5.932;2022-12-07T13:42:29;6.70;99.90
53653;DHT22;39553;52.954;5.932;2022-12-07T13:44:56;5.40;99.90
53653;DHT22;39553;52.954;5.932;2022-12-07T13:47:43;6.30;99.90
53653;DHT22;39553;52.954;5.932;2022-12-07T13:50:28;5.30;99.90
53653;DHT22;39553;52.954;5.932;2022-12-07T13:52:59;5.30;99.90
53653;DHT22;39553;52.954;5.932;2022-12-07T13:55:25;6.10;99.90
53653;DHT22;39553;52.954;5.932;2022-12-07T13:57:53;5.30;99.90
53653;DHT22;39553;52.954;5.932;2022-12-07T14:00:21;5.80;99.90
53653;DHT22;39553;52.954;5.932;2022-12-07T14:02:59;5.20;99.90
53653;DHT22;39553;52.954;5.932;2022-12-07T14:05:34;6.70;99.90
53653;DHT22;39553;52.954;5.932;2022-12-07T14:08:03;5.10;99.90
53653;DHT22;39553;52.954;5.932;2022-12-07T14:10:40;5.50;99.90
53653;DHT22;39553;52.954;5.932;2022-12-07T14:13:33;4.40;99.90
53653;DHT22;39553;52.954;5.932;2022-12-07T14:16:22;5.00;99.90
53653;DHT22;39553;52.954;5.932;2022-12-07T14:18:49;5.00;99.90
53653;DHT22;39553;52.954;5.932;2022-12-07T14:21:17;4.90;99.90
53653;DHT22;39553;52.954;5.932;2022-12-07T14:23:44;4.80;99.90
53653;DHT22;39553;52.954;5.932;2022-12-07T14:26:20;4.70;99.90
53653;DHT22;39553;52.954;5.932;2022-12-07T14:28:47;4.50;99.90
53653;DHT22;39553;52.954;5.932;2022-12-07T14:31:24;4.30;99.90
53653;DHT22;39553;52.954;5.932;2022-12-07T14:33:50;4.10;99.90
53653;DHT22;39553;52.954;5.932;2022-12-07T14:36:16;3.90;99.90
53653;DHT22;39553;52.954;5.932;2022-12-07T14:38:42;3.80;99.90
53653;DHT22;39553;52.954;5.932;2022-12-07T14:41:18;3.70;99.90
53653;DHT22;39553;52.954;5.932;2022-12-07T14:44:12;3.60;99.90
53653;DHT22;39553;52.954;5.932;2022-12-07T14:46:38;3.60;99.90
53653;DHT22;39553;52.954;5.932;2022-12-07T14:49:03;3.50;99.90
53653;DHT22;39553;52.954;5.932;2022-12-07T14:51:29;4.50;99.90
53653;DHT22;39553;52.954;5.932;2022-12-07T14:53:55;4.60;99.90
53653;DHT22;39553;52.954;5.932;2022-12-07T14:56:21;3.50;99.90
53653;DHT22;39553;52.954;5.932;2022-12-07T14:58:47;3.30;99.90
53653;DHT22;39553;52.954;5.932;2022-12-07T15:01:15;3.50;99.90
53653;DHT22;39553;52.954;5.932;2022-12-07T15:03:41;4.50;99.90
53653;DHT22;39553;52.954;5.932;2022-12-07T15:06:07;4.00;99.90
53653;DHT22;39553;52.954;5.932;2022-12-07T15:08:33;4.40;99.90
53653;DHT22;39553;52.954;5.932;2022-12-07T15:10:59;4.30;99.90
53653;DHT22;39553;52.954;5.932;2022-12-07T15:13:25;3.40;99.90
53653;DHT22;39553;52.954;5.932;2022-12-07T15:16:11;3.70;99.90
53653;DHT22;39553;52.954;5.932;2022-12-07T15:18:38;3.20;99.90
53653;DHT22;39553;52.954;5.932;2022-12-07T15:21:04;3.20;99.90
53653;DHT22;39553;52.954;5.932;2022-12-07T15:23:30;3.10;99.90
53653;DHT22;39553;52.954;5.932;2022-12-07T15:25:56;3.10;99.90
53653;DHT22;39553;52.954;5.932;2022-12-07T15:28:22;3.10;99.90
53653;DHT22;39553;52.954;5.932;2022-12-07T15:30:48;3.10;99.90
53653;DHT22;39553;52.954;5.932;2022-12-07T15:33:13;3.20;99.90
53653;DHT22;39553;52.954;5.932;2022-12-07T15:35:44;3.00;99.90
53653;DHT22;39553;52.954;5.932;2022-12-07T15:38:10;3.00;99.90
53653;DHT22;39553;52.954;5.932;2022-12-07T15:40:37;2.90;99.90
53653;DHT22;39553;52.954;5.932;2022-12-07T15:43:03;3.90;99.90
53653;DHT22;39553;52.954;5.932;2022-12-07T15:45:29;2.90;99.90
53653;DHT22;39553;52.954;5.932;2022-12-07T15:47:55;2.90;99.90
53653;DHT22;39553;52.954;5.932;2022-12-07T15:50:21;4.10;99.90
53653;DHT22;39553;52.954;5.932;2022-12-07T15:52:48;3.00;99.90
53653;DHT22;39553;52.954;5.932;2022-12-07T15:55:15;3.10;99.90
53653;DHT22;39553;52.954;5.932;2022-12-07T15:57:40;3.30;99.90
53653;DHT22;39553;52.954;5.932;2022-12-07T16:00:09;4.50;99.90
53653;DHT22;39553;52.954;5.932;2022-12-07T16:02:36;3.20;99.90
53653;DHT22;39553;52.954;5.932;2022-12-07T16:05:02;3.20;99.90
53653;DHT22;39553;52.954;5.932;2022-12-07T16:07:28;3.20;99.90
53653;DHT22;39553;52.954;5.932;2022-12-07T16:09:54;4.30;99.90
53653;DHT22;39553;52.954;5.932;2022-12-07T16:12:19;4.30;99.90
53653;DHT22;39553;52.954;5.932;2022-12-07T16:14:45;3.20;99.90
53653;DHT22;39553;52.954;5.932;2022-12-07T16:17:11;4.80;99.90
53653;DHT22;39553;52.954;5.932;2022-12-07T16:19:37;3.10;99.90
53653;DHT22;39553;52.954;5.932;2022-12-07T16:22:04;3.10;99.90
53653;DHT22;39553;52.954;5.932;2022-12-07T16:24:30;3.90;99.90
53653;DHT22;39553;52.954;5.932;2022-12-07T16:26:56;3.10;99.90
53653;DHT22;39553;52.954;5.932;2022-12-07T16:29:23;3.60;99.90
53653;DHT22;39553;52.954;5.932;2022-12-07T16:31:49;3.00;99.90
53653;DHT22;39553;52.954;5.932;2022-12-07T16:34:15;3.00;99.90
53653;DHT22;39553;52.954;5.932;2022-12-07T16:36:41;2.90;99.90
53653;DHT22;39553;52.954;5.932;2022-12-07T16:39:07;2.90;99.90
53653;DHT22;39553;52.954;5.932;2022-12-07T16:41:33;3.20;99.90
53653;DHT22;39553;52.954;5.932;2022-12-07T16:44:05;4.20;99.90
53653;DHT22;39553;52.954;5.932;2022-12-07T16:46:34;4.70;99.90
53653;DHT22;39553;52.954;5.932;2022-12-07T16:49:03;2.80;99.90
53653;DHT22;39553;52.954;5.932;2022-12-07T16:51:29;4.00;99.90
53653;DHT22;39553;52.954;5.932;2022-12-07T16:53:55;4.60;99.90
53653;DHT22;39553;52.954;5.932;2022-12-07T16:56:21;2.90;99.90
53653;DHT22;39553;52.954;5.932;2022-12-07T16:58:47;3.00;99.90
53653;DHT22;39553;52.954;5.932;2022-12-07T17:01:16;2.90;99.90
53653;DHT22;39553;52.954;5.932;2022-12-07T17:03:43;2.90;99.90
53653;DHT22;39553;52.954;5.932;2022-12-07T17:06:14;2.90;99.90
53653;DHT22;39553;52.954;5.932;2022-12-07T17:08:41;2.90;99.90
53653;DHT22;39553;52.954;5.932;2022-12-07T17:11:17;3.60;99.90
53653;DHT22;39553;52.954;5.932;2022-12-07T17:13:44;3.10;99.90
53653;DHT22;39553;52.954;5.932;2022-12-07T17:16:29;3.10;99.90
53653;DHT22;39553;52.954;5.932;2022-12-07T17:18:55;3.20;99.90
53653;DHT22;39553;52.954;5.932;2022-12-07T17:21:21;3.20;99.90
53653;DHT22;39553;52.954;5.932;2022-12-07T17:23:48;3.20;99.90
53653;DHT22;39553;52.954;5.932;2022-12-07T17:26:20;4.90;99.90
53653;DHT22;39553;52.954;5.932;2022-12-07T17:28:46;3.20;99.90
53653;DHT22;39553;52.954;5.932;2022-12-07T17:31:15;3.20;99.90
53653;DHT22;39553;52.954;5.932;2022-12-07T17:33:41;4.40;99.90
53653;DHT22;39553;52.954;5.932;2022-12-07T17:36:27;4.60;99.90
53653;DHT22;39553;52.954;5.932;2022-12-07T17:38:54;4.30;99.90
53653;DHT22;39553;52.954;5.932;2022-12-07T17:41:22;3.10;99.90
53653;DHT22;39553;52.954;5.932;2022-12-07T17:44:08;3.10;99.90
53653;DHT22;39553;52.954;5.932;2022-12-07T17:46:35;3.00;99.90
53653;DHT22;39553;52.954;5.932;2022-12-07T17:49:05;3.10;99.90
53653;DHT22;39553;52.954;5.932;2022-12-07T17:51:31;3.90;99.90
53653;DHT22;39553;52.954;5.932;2022-12-07T17:54:16;3.00;99.90
53653;DHT22;39553;52.954;5.932;2022-12-07T17:56:42;3.00;99.90
53653;DHT22;39553;52.954;5.932;2022-12-07T17:59:07;3.00;99.90
53653;DHT22;39553;52.954;5.932;2022-12-07T18:01:34;3.00;99.90
53653;DHT22;39553;52.954;5.932;2022-12-07T18:04:01;2.90;99.90
53653;DHT22;39553;52.954;5.932;2022-12-07T18:06:26;4.60;99.90
53653;DHT22;39553;52.954;5.932;2022-12-07T18:08:52;3.00;99.90
53653;DHT22;39553;52.954;5.932;2022-12-07T18:11:18;4.80;99.90
53653;DHT22;39553;52.954;5.932;2022-12-07T18:13:44;4.30;99.90
53653;DHT22;39553;52.954;5.932;2022-12-07T18:16:16;3.10;99.90
53653;DHT22;39553;52.954;5.932;2022-12-07T18:18:43;3.10;99.90
53653;DHT22;39553;52.954;5.932;2022-12-07T18:21:11;3.80;99.90
53653;DHT22;39553;52.954;5.932;2022-12-07T18:23:40;3.10;99.90